createdAt,value
2023-04-17T00:01:04.223Z,100.00
2023-04-17T00:03:33.179Z,100.00
2023-04-17T00:06:06.446Z,100.00
2023-04-17T00:08:35.392Z,100.00
2023-04-17T00:11:08.376Z,100.00
2023-04-17T00:13:40.220Z,100.00
2023-04-17T00:16:19.525Z,100.00
2023-04-17T00:18:50.617Z,100.00
2023-04-17T00:21:20.993Z,100.00
2023-04-17T00:23:50.350Z,100.00
2023-04-17T00:26:21.185Z,100.00
2023-04-17T00:28:58.619Z,100.00
2023-04-17T00:31:43.791Z,100.00
2023-04-17T00:34:11.915Z,100.00
2023-04-17T00:36:41.026Z,100.00
2023-04-17T00:39:22.094Z,100.00
2023-04-17T00:41:53.108Z,100.00
2023-04-17T00:44:24.182Z,100.00
2023-04-17T00:47:08.872Z,100.00
2023-04-17T00:49:40.501Z,100.00
2023-04-17T00:52:10.006Z,100.00
2023-04-17T00:54:41.295Z,100.00
2023-04-17T00:57:18.331Z,100.00
2023-04-17T00:59:49.058Z,100.00
2023-04-17T01:02:20.951Z,100.00
2023-04-17T01:04:49.089Z,100.00
2023-04-17T01:07:26.280Z,100.00
2023-04-17T01:09:55.861Z,100.00
2023-04-17T01:12:27.193Z,100.00
2023-04-17T01:15:04.857Z,100.00
2023-04-17T01:17:46.672Z,100.00
2023-04-17T01:20:17.589Z,100.00
2023-04-17T01:22:58.592Z,100.00
2023-04-17T01:25:34.372Z,100.00
2023-04-17T01:28:06.404Z,100.00
2023-04-17T01:30:35.433Z,100.00
2023-04-17T01:33:09.513Z,100.00
2023-04-17T01:35:43.378Z,100.00
2023-04-17T01:38:12.536Z,100.00
2023-04-17T01:40:44.950Z,100.00
2023-04-17T01:43:19.000Z,100.00
2023-04-17T01:45:55.447Z,100.00
2023-04-17T01:48:36.985Z,100.00
2023-04-17T01:51:09.851Z,100.00
2023-04-17T01:53:46.079Z,100.00
2023-04-17T01:56:26.041Z,100.00
2023-04-17T01:58:57.727Z,100.00
2023-04-17T02:01:29.384Z,100.00
2023-04-17T02:04:00.531Z,100.00
2023-04-17T02:06:32.255Z,100.00
2023-04-17T02:09:06.315Z,100.00
2023-04-17T02:11:49.565Z,100.00
2023-04-17T02:14:30.507Z,100.00
2023-04-17T02:17:00.075Z,100.00
2023-04-17T02:19:29.010Z,100.00
2023-04-17T02:22:00.435Z,100.00
2023-04-17T02:24:32.064Z,100.00
2023-04-17T02:27:10.917Z,100.00
2023-04-17T02:29:41.618Z,100.00
2023-04-17T02:32:18.324Z,100.00
2023-04-17T02:34:52.083Z,100.00
2023-04-17T02:37:23.634Z,100.00
2023-04-17T02:39:54.799Z,100.00
2023-04-17T02:42:37.549Z,100.00
2023-04-17T02:45:07.358Z,100.00
2023-04-17T02:47:36.822Z,100.00
2023-04-17T02:50:09.246Z,100.00
2023-04-17T02:52:46.973Z,100.00
2023-04-17T02:55:17.433Z,100.00
2023-04-17T02:57:53.955Z,100.00
2023-04-17T03:00:24.768Z,100.00
2023-04-17T03:03:01.739Z,100.00
2023-04-17T03:05:39.701Z,100.00
2023-04-17T03:08:17.120Z,100.00
2023-04-17T03:10:50.765Z,100.00
2023-04-17T03:13:27.350Z,100.00
2023-04-17T03:15:56.354Z,100.00
2023-04-17T03:18:28.142Z,100.00
2023-04-17T03:21:00.831Z,100.00
2023-04-17T03:23:30.921Z,100.00
2023-04-17T03:26:02.110Z,100.00
2023-04-17T03:28:46.525Z,100.00
2023-04-17T03:31:17.946Z,100.00
2023-04-17T03:33:47.311Z,100.00
2023-04-17T03:36:18.270Z,100.00
2023-04-17T03:38:51.261Z,100.00
2023-04-17T03:41:22.159Z,100.00
2023-04-17T03:43:53.048Z,100.00
2023-04-17T03:46:31.541Z,100.00
2023-04-17T03:49:06.410Z,100.00
2023-04-17T03:51:37.127Z,100.00
2023-04-17T03:54:18.635Z,100.00
2023-04-17T03:56:55.699Z,100.00
2023-04-17T03:59:38.054Z,100.00
2023-04-17T04:02:07.734Z,100.00
2023-04-17T04:04:39.235Z,100.00
2023-04-17T04:07:12.784Z,100.00
2023-04-17T04:09:43.515Z,100.00
2023-04-17T04:12:15.033Z,100.00
2023-04-17T04:14:50.986Z,100.00
2023-04-17T04:17:20.376Z,100.00
2023-04-17T04:19:51.506Z,100.00
2023-04-17T04:22:28.017Z,100.00
2023-04-17T04:24:58.155Z,100.00
2023-04-17T04:27:42.564Z,100.00
2023-04-17T04:30:28.932Z,100.00
2023-04-17T04:33:27.783Z,100.00
2023-04-17T04:36:03.660Z,100.00
2023-04-17T04:38:38.214Z,100.00
2023-04-17T04:41:32.719Z,100.00
2023-04-17T04:44:05.065Z,100.00
2023-04-17T04:46:42.453Z,100.00
2023-04-17T04:49:13.057Z,100.00
2023-04-17T04:51:42.527Z,100.00
2023-04-17T04:54:11.893Z,100.00
2023-04-17T04:56:51.344Z,100.00
2023-04-17T04:59:21.740Z,100.00
2023-04-17T05:02:09.285Z,100.00
2023-04-17T05:04:46.223Z,100.00
2023-04-17T05:07:15.302Z,100.00
2023-04-17T05:09:52.746Z,100.00
2023-04-17T05:12:24.702Z,100.00
2023-04-17T05:14:55.673Z,100.00
2023-04-17T05:17:34.561Z,99.88
2023-04-17T05:20:07.144Z,99.29
2023-04-17T05:22:41.378Z,98.97
2023-04-17T05:25:27.381Z,99.71
2023-04-17T05:28:01.344Z,100.00
2023-04-17T05:30:33.810Z,100.00
2023-04-17T05:33:23.668Z,99.59
2023-04-17T05:35:57.198Z,99.55
2023-04-17T05:38:28.406Z,98.37
2023-04-17T05:40:57.842Z,99.51
2023-04-17T05:43:28.390Z,99.80
2023-04-17T05:45:56.890Z,99.85
2023-04-17T05:48:26.738Z,99.05
2023-04-17T05:50:56.130Z,98.49
2023-04-17T05:53:32.709Z,99.24
2023-04-17T05:56:07.030Z,98.71
2023-04-17T05:58:40.576Z,99.25
2023-04-17T06:01:20.760Z,98.32
2023-04-17T06:04:06.441Z,99.44
2023-04-17T06:06:40.812Z,98.65
2023-04-17T06:09:11.976Z,98.06
2023-04-17T06:11:42.597Z,97.69
2023-04-17T06:14:12.168Z,95.48
2023-04-17T06:16:49.180Z,95.91
2023-04-17T06:19:25.998Z,95.58
2023-04-17T06:21:54.055Z,95.27
2023-04-17T06:24:34.506Z,95.62
2023-04-17T06:27:05.448Z,95.03
2023-04-17T06:29:33.556Z,95.33
2023-04-17T06:32:04.933Z,95.43
2023-04-17T06:34:39.584Z,94.40
2023-04-17T06:37:12.491Z,93.11
2023-04-17T06:39:44.865Z,93.50
2023-04-17T06:42:16.498Z,92.54
2023-04-17T06:44:46.593Z,92.30
2023-04-17T06:47:29.281Z,92.52
2023-04-17T06:50:01.253Z,93.12
2023-04-17T06:52:29.628Z,90.89
2023-04-17T06:55:00.560Z,90.54
2023-04-17T06:57:33.784Z,90.51
2023-04-17T07:00:05.378Z,89.78
2023-04-17T07:02:36.889Z,89.68
2023-04-17T07:05:21.764Z,88.67
2023-04-17T07:07:52.496Z,88.35
2023-04-17T07:10:20.644Z,87.98
2023-04-17T07:12:51.776Z,87.44
2023-04-17T07:15:23.266Z,86.03
2023-04-17T07:17:58.454Z,85.81
2023-04-17T07:20:39.352Z,85.28
2023-04-17T07:23:11.354Z,84.42
2023-04-17T07:25:41.962Z,84.00
2023-04-17T07:28:12.745Z,84.76
2023-04-17T07:30:42.140Z,85.45
2023-04-17T07:33:16.369Z,84.74
2023-04-17T07:35:48.343Z,84.52
2023-04-17T07:38:23.962Z,81.96
2023-04-17T07:40:52.447Z,82.23
2023-04-17T07:43:21.953Z,81.50
2023-04-17T07:45:52.483Z,81.40
2023-04-17T07:48:24.151Z,80.60
2023-04-17T07:50:56.250Z,80.12
2023-04-17T07:53:28.187Z,79.88
2023-04-17T07:56:12.751Z,79.41
2023-04-17T07:58:42.112Z,79.68
2023-04-17T08:01:10.953Z,79.64
2023-04-17T08:03:49.139Z,78.66
2023-04-17T08:06:29.686Z,77.90
2023-04-17T08:09:00.003Z,77.83
2023-04-17T08:11:28.710Z,77.46
2023-04-17T08:14:00.430Z,77.21
2023-04-17T08:16:29.525Z,77.35
2023-04-17T08:19:01.292Z,78.18
2023-04-17T08:21:31.157Z,78.15
2023-04-17T08:24:04.848Z,77.18
2023-04-17T08:26:37.835Z,76.83
2023-04-17T08:29:12.018Z,77.35
2023-04-17T08:32:00.185Z,77.17
2023-04-17T08:34:44.839Z,76.67
2023-04-17T08:37:15.907Z,76.82
2023-04-17T08:39:45.892Z,76.24
2023-04-17T08:42:18.949Z,75.63
2023-04-17T08:44:50.707Z,75.63
2023-04-17T08:47:22.582Z,75.01
2023-04-17T08:49:58.468Z,74.84
2023-04-17T08:52:38.303Z,74.00
2023-04-17T08:55:14.793Z,74.99
2023-04-17T08:58:04.970Z,73.62
2023-04-17T09:00:34.049Z,73.88
2023-04-17T09:03:05.123Z,73.94
2023-04-17T09:05:39.438Z,73.61
2023-04-17T09:08:18.378Z,74.44
2023-04-17T09:10:49.325Z,74.32
2023-04-17T09:13:22.695Z,74.63
2023-04-17T09:16:07.135Z,73.70
2023-04-17T09:18:39.150Z,73.98
2023-04-17T09:21:13.174Z,74.32
2023-04-17T09:23:54.466Z,73.38
2023-04-17T09:26:33.535Z,73.59
2023-04-17T09:29:09.349Z,72.65
2023-04-17T09:31:40.170Z,73.63
2023-04-17T09:34:15.666Z,73.85
2023-04-17T09:36:51.605Z,74.78
2023-04-17T09:39:29.575Z,74.43
2023-04-17T09:42:09.235Z,74.64
2023-04-17T09:44:40.400Z,74.75
2023-04-17T09:47:14.255Z,74.20
2023-04-17T09:49:51.759Z,74.17
2023-04-17T09:52:25.995Z,73.19
2023-04-17T09:55:09.404Z,72.34
2023-04-17T09:57:44.067Z,72.19
2023-04-17T10:00:21.914Z,71.69
2023-04-17T10:02:52.513Z,71.75
2023-04-17T10:05:23.602Z,71.16
2023-04-17T10:07:52.611Z,70.22
2023-04-17T10:10:39.789Z,69.89
2023-04-17T10:13:13.948Z,70.37
2023-04-17T10:15:46.702Z,69.81
2023-04-17T10:18:27.965Z,70.33
2023-04-17T10:20:57.666Z,70.10
2023-04-17T10:23:31.694Z,70.31
2023-04-17T10:26:40.191Z,69.87
2023-04-17T10:29:25.540Z,69.88
2023-04-17T10:32:20.101Z,69.85
2023-04-17T10:34:51.081Z,68.99
2023-04-17T10:37:23.017Z,68.93
2023-04-17T10:39:58.013Z,68.74
2023-04-17T10:42:35.645Z,68.57
2023-04-17T10:45:20.091Z,69.11
2023-04-17T10:48:02.298Z,69.06
2023-04-17T10:50:30.909Z,68.50
2023-04-17T10:53:07.112Z,68.89
2023-04-17T10:55:48.879Z,68.95
2023-04-17T10:58:18.923Z,68.55
2023-04-17T11:01:05.765Z,67.36
2023-04-17T11:03:37.360Z,67.03
2023-04-17T11:06:12.960Z,67.30
2023-04-17T11:08:53.619Z,66.27
2023-04-17T11:11:35.160Z,66.54
2023-04-17T11:14:23.261Z,65.74
2023-04-17T11:16:57.762Z,65.57
2023-04-17T11:19:29.484Z,65.36
2023-04-17T11:21:58.907Z,64.23
2023-04-17T11:24:30.409Z,63.80
2023-04-17T11:27:12.121Z,63.37
2023-04-17T11:29:40.940Z,63.35
2023-04-17T11:32:22.631Z,62.62
2023-04-17T11:34:57.197Z,62.99
2023-04-17T11:37:26.527Z,63.67
2023-04-17T11:39:57.356Z,63.69
2023-04-17T11:42:30.618Z,62.79
2023-04-17T11:45:07.884Z,61.05
2023-04-17T11:47:46.743Z,60.30
2023-04-17T11:50:26.240Z,59.88
2023-04-17T11:53:00.993Z,60.86
2023-04-17T11:55:38.571Z,61.77
2023-04-17T11:58:09.648Z,61.77
2023-04-17T12:00:38.340Z,63.24
2023-04-17T12:03:35.345Z,62.33
2023-04-17T12:06:06.600Z,62.57
2023-04-17T12:08:52.142Z,62.30
2023-04-17T12:11:39.244Z,62.17
2023-04-17T12:14:12.406Z,61.89
2023-04-17T12:16:46.079Z,60.82
2023-04-17T12:19:18.692Z,59.77
2023-04-17T12:21:53.131Z,59.23
2023-04-17T12:24:24.280Z,58.98
2023-04-17T12:26:58.279Z,58.64
2023-04-17T12:29:43.797Z,58.62
2023-04-17T12:32:16.646Z,57.52
2023-04-17T12:34:53.174Z,56.64
2023-04-17T12:37:22.511Z,56.24
2023-04-17T12:40:00.789Z,56.28
2023-04-17T12:42:31.557Z,54.69
2023-04-17T12:45:06.584Z,54.80
2023-04-17T12:47:42.625Z,56.99
2023-04-17T12:50:23.701Z,56.59
2023-04-17T12:52:59.384Z,56.01
2023-04-17T12:55:28.430Z,55.65
2023-04-17T12:57:56.875Z,56.09
2023-04-17T13:00:26.461Z,56.26
2023-04-17T13:02:54.956Z,55.73
2023-04-17T13:05:34.051Z,56.26
2023-04-17T13:08:03.858Z,56.13
2023-04-17T13:10:36.036Z,56.07
2023-04-17T13:13:07.133Z,57.67
2023-04-17T13:15:40.906Z,59.38
2023-04-17T13:18:14.893Z,60.33
2023-04-17T13:20:59.768Z,61.24
2023-04-17T13:23:38.065Z,60.39
2023-04-17T13:26:09.169Z,61.19
2023-04-17T13:28:39.914Z,62.35
2023-04-17T13:31:16.313Z,64.14
2023-04-17T13:33:45.537Z,64.22
2023-04-17T13:36:19.017Z,64.56
2023-04-17T13:38:50.905Z,64.38
2023-04-17T13:41:36.229Z,63.86
2023-04-17T13:44:07.133Z,62.32
2023-04-17T13:46:37.180Z,61.22
2023-04-17T13:49:08.889Z,59.55
2023-04-17T13:51:53.662Z,57.71
2023-04-17T13:54:25.299Z,56.39
2023-04-17T13:56:54.734Z,56.70
2023-04-17T13:59:24.063Z,56.05
2023-04-17T14:02:05.129Z,57.01
2023-04-17T14:04:36.965Z,59.60
2023-04-17T14:07:07.650Z,62.89
2023-04-17T14:09:38.644Z,65.20
2023-04-17T14:12:09.647Z,66.56
2023-04-17T14:14:39.535Z,67.59
2023-04-17T14:17:07.873Z,65.99
2023-04-17T14:19:38.591Z,65.36
2023-04-17T14:22:13.021Z,64.33
2023-04-17T14:24:42.843Z,65.36
2023-04-17T14:27:13.323Z,67.70
2023-04-17T14:29:45.142Z,69.71
2023-04-17T14:32:21.376Z,70.57
2023-04-17T14:34:53.505Z,69.72
2023-04-17T14:37:28.521Z,69.87
2023-04-17T14:40:01.463Z,70.64
2023-04-17T14:42:31.558Z,71.83
2023-04-17T14:45:06.969Z,71.53
2023-04-17T14:47:44.699Z,71.60
2023-04-17T14:50:18.049Z,71.00
2023-04-17T14:52:51.893Z,70.57
2023-04-17T14:55:23.601Z,70.31
2023-04-17T14:57:52.001Z,70.25
2023-04-17T15:00:21.490Z,68.95
2023-04-17T15:02:53.815Z,69.57
2023-04-17T15:05:34.120Z,69.53
2023-04-17T15:08:17.363Z,71.50
2023-04-17T15:10:51.526Z,69.96
2023-04-17T15:13:22.194Z,68.51
2023-04-17T15:15:50.526Z,66.86
2023-04-17T15:18:20.647Z,67.61
2023-04-17T15:20:58.703Z,67.82
2023-04-17T15:23:30.676Z,65.81
2023-04-17T15:26:01.914Z,63.27
2023-04-17T15:28:33.186Z,63.13
2023-04-17T15:31:04.886Z,61.05
2023-04-17T15:33:33.150Z,60.49
2023-04-17T15:36:09.652Z,60.10
2023-04-17T15:38:42.592Z,60.94
2023-04-17T15:41:17.715Z,60.49
2023-04-17T15:43:46.427Z,62.63
2023-04-17T15:46:24.997Z,64.13
2023-04-17T15:49:07.551Z,65.87
2023-04-17T15:51:47.955Z,62.81
2023-04-17T15:54:20.068Z,63.88
2023-04-17T15:56:51.727Z,64.56
2023-04-17T15:59:21.387Z,65.07
2023-04-17T16:01:53.073Z,66.24
2023-04-17T16:04:21.795Z,66.98
2023-04-17T16:06:56.815Z,67.37
2023-04-17T16:09:37.560Z,68.70
2023-04-17T16:12:12.575Z,67.35
2023-04-17T16:14:41.382Z,67.63
2023-04-17T16:17:10.652Z,66.15
2023-04-17T16:19:41.947Z,65.12
2023-04-17T16:22:15.898Z,64.38
2023-04-17T16:24:46.063Z,64.70
2023-04-17T16:27:20.658Z,64.81
2023-04-17T16:29:51.549Z,65.46
2023-04-17T16:32:24.677Z,66.86
2023-04-17T16:34:53.938Z,67.66
2023-04-17T16:37:27.346Z,68.53
2023-04-17T16:40:09.949Z,70.22
2023-04-17T16:42:42.175Z,72.99
2023-04-17T16:45:21.467Z,72.85
2023-04-17T16:47:49.823Z,73.27
2023-04-17T16:50:24.355Z,73.20
2023-04-17T16:52:56.567Z,72.97
2023-04-17T16:55:26.203Z,72.09
2023-04-17T16:57:58.259Z,71.87
2023-04-17T17:00:28.558Z,71.98
2023-04-17T17:02:57.842Z,71.20
2023-04-17T17:05:26.822Z,71.65
2023-04-17T17:07:56.680Z,72.40
2023-04-17T17:10:42.383Z,70.35
2023-04-17T17:13:12.938Z,70.46
2023-04-17T17:15:45.204Z,68.90
2023-04-17T17:18:27.095Z,68.64
2023-04-17T17:21:00.460Z,68.33
2023-04-17T17:23:29.154Z,67.81
2023-04-17T17:26:10.271Z,68.08
2023-04-17T17:28:43.196Z,68.00
2023-04-17T17:31:20.992Z,67.11
2023-04-17T17:33:53.066Z,67.74
2023-04-17T17:36:27.782Z,67.84
2023-04-17T17:38:58.697Z,68.56
2023-04-17T17:41:45.195Z,69.19
2023-04-17T17:44:35.044Z,69.08
2023-04-17T17:47:08.143Z,69.88
2023-04-17T17:49:45.855Z,70.71
2023-04-17T17:52:22.267Z,70.25
2023-04-17T17:54:54.298Z,70.16
2023-04-17T17:57:42.232Z,69.95
2023-04-17T18:00:25.484Z,69.77
2023-04-17T18:02:58.664Z,69.48
2023-04-17T18:05:29.933Z,69.26
2023-04-17T18:08:02.682Z,69.51
2023-04-17T18:10:35.305Z,69.45
2023-04-17T18:13:06.729Z,69.56
2023-04-17T18:15:37.944Z,70.12
2023-04-17T18:18:16.672Z,70.04
2023-04-17T18:20:59.844Z,70.38
2023-04-17T18:23:50.852Z,70.35
2023-04-17T18:26:29.060Z,71.01
2023-04-17T18:29:16.566Z,71.11
2023-04-17T18:31:47.094Z,71.02
2023-04-17T18:34:18.773Z,70.93
2023-04-17T18:36:55.240Z,71.08
2023-04-17T18:39:25.166Z,71.11
2023-04-17T18:45:02.869Z,71.57
2023-04-17T18:47:44.729Z,72.12
2023-04-17T18:50:25.563Z,72.26
2023-04-17T18:52:57.802Z,72.12
2023-04-17T18:55:42.457Z,72.79
2023-04-17T18:58:21.095Z,73.06
2023-04-17T19:00:56.106Z,72.47
2023-04-17T19:03:41.072Z,74.10
2023-04-17T19:06:31.448Z,75.13
2023-04-17T19:09:01.529Z,75.69
2023-04-17T19:11:51.476Z,76.02
2023-04-17T19:14:37.266Z,75.90
2023-04-17T19:17:13.011Z,75.92
2023-04-17T19:19:49.532Z,75.54
2023-04-17T19:22:30.564Z,75.95
2023-04-17T19:25:06.778Z,76.35
2023-04-17T19:27:40.130Z,76.20
2023-04-17T19:30:19.312Z,75.62
2023-04-17T19:33:09.289Z,75.41
2023-04-17T19:35:54.224Z,75.86
2023-04-17T19:38:37.310Z,76.26
2023-04-17T19:41:20.791Z,76.31
2023-04-17T19:44:09.703Z,76.63
2023-04-17T19:46:51.582Z,76.28
2023-04-17T19:49:38.672Z,76.46
2023-04-17T19:55:02.668Z,77.69
2023-04-17T19:57:34.732Z,76.62
2023-04-17T20:00:17.435Z,77.09
2023-04-17T20:02:49.279Z,77.12
2023-04-17T20:05:43.550Z,77.68
2023-04-17T20:08:14.779Z,78.99
2023-04-17T20:10:52.351Z,78.45
2023-04-17T20:13:33.848Z,78.69
2023-04-17T20:16:05.254Z,78.47
2023-04-17T20:18:56.033Z,78.52
2023-04-17T20:21:42.978Z,78.72
2023-04-17T20:24:16.013Z,79.13
2023-04-17T20:26:47.044Z,79.21
2023-04-17T20:29:30.846Z,79.25
2023-04-17T20:34:45.124Z,79.64
2023-04-17T20:37:26.429Z,79.25
2023-04-17T20:39:59.309Z,78.27
2023-04-17T20:42:31.812Z,78.86
2023-04-17T20:45:01.316Z,79.00
2023-04-17T20:47:31.776Z,79.51
2023-04-17T20:50:11.142Z,79.28
2023-04-17T20:52:43.716Z,79.32
2023-04-17T20:55:13.152Z,79.85
2023-04-17T20:57:47.144Z,80.06
2023-04-17T21:00:16.648Z,78.74
2023-04-17T21:02:48.426Z,79.97
2023-04-17T21:05:27.499Z,79.84
2023-04-17T21:08:08.445Z,79.92
2023-04-17T21:10:39.936Z,80.79
2023-04-17T21:13:13.942Z,81.30
2023-04-17T21:15:53.080Z,81.47
2023-04-17T21:18:26.877Z,82.29
2023-04-17T21:20:58.436Z,81.88
2023-04-17T21:23:35.493Z,81.14
2023-04-17T21:26:12.060Z,82.01
2023-04-17T21:28:46.149Z,82.28
2023-04-17T21:31:17.958Z,82.87
2023-04-17T21:33:48.631Z,83.21
2023-04-17T21:36:22.418Z,84.03
2023-04-17T21:39:11.070Z,83.77
2023-04-17T21:41:48.566Z,83.24
2023-04-17T21:44:24.069Z,84.39
2023-04-17T21:47:11.391Z,84.13
2023-04-17T21:49:44.099Z,83.83
2023-04-17T21:52:15.384Z,83.25
2023-04-17T21:54:47.327Z,82.18
2023-04-17T21:57:25.412Z,82.33
2023-04-17T21:59:57.112Z,82.62
2023-04-17T22:02:26.722Z,82.80
2023-04-17T22:04:56.195Z,81.79
2023-04-17T22:07:26.999Z,82.31
2023-04-17T22:09:59.133Z,81.52
2023-04-17T22:12:30.643Z,82.25
2023-04-17T22:15:00.157Z,81.75
2023-04-17T22:17:31.570Z,81.89
2023-04-17T22:20:01.444Z,81.63
2023-04-17T22:22:31.653Z,81.72
2023-04-17T22:25:14.930Z,80.99
2023-04-17T22:27:44.807Z,81.59
2023-04-17T22:30:16.226Z,80.65
2023-04-17T22:32:46.314Z,81.36
2023-04-17T22:35:25.028Z,80.97
2023-04-17T22:37:53.473Z,80.24
2023-04-17T22:40:25.294Z,80.61
2023-04-17T22:42:53.790Z,81.23
2023-04-17T22:45:24.620Z,80.76
2023-04-17T22:47:59.737Z,80.54
2023-04-17T22:50:38.571Z,79.78
2023-04-17T22:53:07.701Z,80.46
2023-04-17T22:55:38.866Z,80.17
2023-04-17T22:58:07.552Z,80.48
2023-04-17T23:00:35.819Z,80.47
2023-04-17T23:03:04.673Z,80.83
2023-04-17T23:05:36.834Z,80.87
2023-04-17T23:08:13.043Z,82.01
2023-04-17T23:11:01.237Z,81.80
2023-04-17T23:13:35.364Z,82.17
2023-04-17T23:16:04.829Z,81.10
2023-04-17T23:18:34.012Z,81.36
2023-04-17T23:21:03.312Z,81.81
2023-04-17T23:23:34.676Z,80.55
2023-04-17T23:26:18.295Z,81.01
2023-04-17T23:28:46.687Z,82.01
2023-04-17T23:31:21.311Z,81.42
2023-04-17T23:33:52.695Z,81.33
2023-04-17T23:36:22.803Z,80.71
2023-04-17T23:38:56.641Z,81.79
2023-04-17T23:41:46.275Z,81.83
2023-04-17T23:44:17.744Z,81.37
2023-04-17T23:46:56.342Z,80.75
2023-04-17T23:49:34.215Z,80.95
2023-04-17T23:52:05.922Z,81.18
2023-04-17T23:54:37.795Z,81.67
2023-04-17T23:57:12.687Z,81.31
2023-04-17T23:59:44.446Z,82.33
